Time;durP1;ratioP1;P1;durP2;ratioP2;P2;SDS_P1;SDS_P2;PMS_P1;PMS_P2;Temp;Humidity;BMP_temperature;BMP_pressure;BME280_temperature;BME280_humidity;BME280_pressure;Samples;Min_cycle;Max_cycle;Signal;HPM_P1;HPM_P2
2022/02/18 00:01:52;;;;;;;11.73;0.85;;;8.20;82.20;;;;;;10383320;28;20042;-62
2022/02/18 00:06:54;;;;;;;6.20;0.60;;;8.20;82.90;;;;;;10385070;28;20087;-63
2022/02/18 00:11:56;;;;;;;7.30;0.93;;;8.10;83.50;;;;;;10389261;28;20061;-62
2022/02/18 00:16:57;;;;;;;12.15;0.75;;;8.00;84.40;;;;;;10389252;28;20042;-63
2022/02/18 00:21:59;;;;;;;8.65;0.50;;;8.00;85.00;;;;;;10385216;28;20099;-62
2022/02/18 00:27:01;;;;;;;5.13;0.50;;;7.90;85.20;;;;;;10391075;28;20075;-62
2022/02/18 00:32:07;;;;;;;5.07;0.55;;;7.90;85.30;;;;;;10392137;28;20196;-62
2022/02/18 00:37:09;;;;;;;8.70;0.83;;;7.80;86.30;;;;;;10382377;28;20049;-62
2022/02/18 00:42:10;;;;;;;8.57;0.80;;;7.80;86.50;;;;;;10387430;28;20126;-62
2022/02/18 00:47:12;;;;;;;9.65;0.63;;;7.80;88.00;;;;;;10384983;28;20474;-62
2022/02/18 00:52:15;;;;;;;10.00;0.95;;;7.80;90.10;;;;;;10381127;28;20069;-62
2022/02/18 00:57:16;;;;;;;13.32;0.90;;;7.70;91.10;;;;;;10388590;28;20432;-62
2022/02/18 01:02:18;;;;;;;12.32;1.15;;;7.70;92.60;;;;;;10385020;28;20086;-62
2022/02/18 01:07:20;;;;;;;11.38;1.15;;;7.70;92.90;;;;;;10386700;28;20103;-62
2022/02/18 01:12:22;;;;;;;8.43;1.17;;;7.70;93.80;;;;;;10381571;28;20127;-62
2022/02/18 01:17:24;;;;;;;16.10;1.83;;;7.70;94.30;;;;;;10303238;28;20089;-62
2022/02/18 01:22:26;;;;;;;16.02;1.42;;;7.80;95.00;;;;;;10301919;28;20139;-62
2022/02/18 01:27:27;;;;;;;11.30;1.27;;;7.80;95.30;;;;;;10305283;28;20159;-62
2022/02/18 01:32:29;;;;;;;18.30;2.92;;;7.90;95.00;;;;;;10300175;28;20145;-63
2022/02/18 01:37:31;;;;;;;9.32;1.40;;;7.90;95.30;;;;;;10301495;28;20047;-62
2022/02/18 01:42:32;;;;;;;13.38;0.60;;;7.90;95.30;;;;;;10300228;28;20053;-63
2022/02/18 01:47:35;;;;;;;9.65;1.08;;;8.00;94.40;;;;;;10296502;28;20564;-64
2022/02/18 01:52:45;;;;;;;13.98;0.90;;;8.00;94.10;;;;;;10298360;28;20050;-63
2022/02/18 01:57:58;;;;;;;11.35;1.60;;;8.00;94.70;;;;;;10301048;28;20070;-63
2022/02/18 02:03:02;;;;;;;12.00;1.85;;;8.00;95.10;;;;;;10302848;28;20054;-61
2022/02/18 02:08:04;;;;;;;13.07;1.23;;;7.90;95.50;;;;;;10300953;28;20327;-62
2022/02/18 02:13:06;;;;;;;13.63;1.33;;;7.90;95.90;;;;;;10317101;28;20068;-62
2022/02/18 02:18:07;;;;;;;11.88;1.42;;;7.80;96.10;;;;;;10385996;28;20100;-61
2022/02/18 02:23:09;;;;;;;17.30;1.35;;;7.80;96.30;;;;;;10380532;28;20054;-62
2022/02/18 02:28:10;;;;;;;14.10;2.20;;;7.80;96.60;;;;;;10381634;28;20088;-62
2022/02/18 02:33:12;;;;;;;8.43;0.90;;;7.80;96.70;;;;;;10387538;28;20080;-62
2022/02/18 02:38:16;;;;;;;11.05;0.70;;;7.90;95.60;;;;;;10381916;28;20041;-62
2022/02/18 02:43:18;;;;;;;9.07;0.60;;;7.90;95.50;;;;;;10382682;28;20103;-62
2022/02/18 02:48:20;;;;;;;11.80;1.02;;;7.80;94.90;;;;;;10388620;28;20480;-62
2022/02/18 02:53:21;;;;;;;8.43;0.93;;;7.80;94.60;;;;;;10379498;28;20058;-62
2022/02/18 02:58:25;;;;;;;8.27;1.02;;;7.90;94.30;;;;;;10381652;28;20057;-63
2022/02/18 03:03:27;;;;;;;5.00;0.50;;;7.90;93.90;;;;;;10378894;28;20111;-62
2022/02/18 03:08:29;;;;;;;15.57;1.35;;;7.90;94.10;;;;;;10376912;28;20177;-62
2022/02/18 03:13:30;;;;;;;16.90;0.80;;;7.90;93.70;;;;;;10383356;28;20103;-62
2022/02/18 03:18:32;;;;;;;9.05;1.60;;;7.90;93.40;;;;;;10390886;28;20065;-61
2022/02/18 03:23:35;;;;;;;14.18;1.55;;;8.00;93.10;;;;;;10392903;28;20088;-62
2022/02/18 03:28:37;;;;;;;7.30;1.05;;;7.90;93.10;;;;;;10403202;28;20050;-62
2022/02/18 03:33:39;;;;;;;10.57;0.85;;;7.90;93.10;;;;;;10389906;28;20095;-63
2022/02/18 03:38:41;;;;;;;8.68;0.90;;;7.90;93.30;;;;;;10386088;28;20111;-63
2022/02/18 03:43:43;;;;;;;9.68;1.00;;;7.90;93.30;;;;;;10387565;28;20045;-62
2022/02/18 03:48:44;;;;;;;5.85;0.55;;;7.90;93.10;;;;;;10392728;28;20168;-62
2022/02/18 03:53:49;;;;;;;6.40;0.70;;;7.90;93.10;;;;;;10388586;28;20161;-62
2022/02/18 03:58:51;;;;;;;12.35;0.63;;;7.80;93.50;;;;;;10392000;28;20049;-62
2022/02/18 04:03:52;;;;;;;7.60;0.90;;;7.80;93.60;;;;;;10382992;28;20064;-62
2022/02/18 04:08:54;;;;;;;8.57;0.57;;;7.80;93.80;;;;;;10383505;28;20050;-62
2022/02/18 04:13:56;;;;;;;18.17;1.23;;;7.70;94.00;;;;;;10389418;28;20050;-62
2022/02/18 04:18:57;;;;;;;8.80;0.77;;;7.70;94.40;;;;;;10387724;28;20107;-62
2022/02/18 04:23:59;;;;;;;9.77;0.95;;;7.60;95.20;;;;;;10387073;28;20056;-62
2022/02/18 04:29:00;;;;;;;12.32;1.50;;;7.60;95.40;;;;;;10392441;28;20111;-62
2022/02/18 04:34:02;;;;;;;9.65;0.80;;;7.60;95.90;;;;;;10384990;28;20069;-62
2022/02/18 04:39:04;;;;;;;18.45;1.80;;;7.60;96.50;;;;;;10387219;28;20053;-62
2022/02/18 04:44:05;;;;;;;6.25;0.77;;;7.60;97.40;;;;;;10385396;28;20080;-62
2022/02/18 04:49:07;;;;;;;14.25;1.48;;;7.60;99.30;;;;;;10384363;28;20045;-63
2022/02/18 04:54:09;;;;;;;4.13;1.02;;;7.60;99.90;;;;;;10387119;28;20073;-63
2022/02/18 04:59:12;;;;;;;15.13;1.30;;;7.60;99.90;;;;;;10386762;28;20093;-62
2022/02/18 05:04:14;;;;;;;18.20;0.80;;;7.60;99.90;;;;;;10392622;28;20535;-62
2022/02/18 05:09:16;;;;;;;14.15;1.38;;;7.70;99.90;;;;;;10386105;28;20045;-62
2022/02/18 05:14:18;;;;;;;13.77;0.80;;;7.70;99.90;;;;;;10379020;28;20100;-62
2022/02/18 05:19:19;;;;;;;18.98;1.02;;;7.70;99.90;;;;;;10382740;28;20069;-62
2022/02/18 05:24:21;;;;;;;18.10;1.75;;;7.70;99.90;;;;;;10379960;28;20115;-62
2022/02/18 05:29:23;;;;;;;11.23;0.68;;;7.70;99.90;;;;;;10381039;28;20111;-62
2022/02/18 05:34:24;;;;;;;9.73;1.00;;;7.70;99.90;;;;;;10385258;28;20045;-62
2022/02/18 05:39:26;;;;;;;11.65;1.08;;;7.70;99.90;;;;;;10386220;28;20446;-62
2022/02/18 05:44:31;;;;;;;9.05;1.42;;;7.80;99.90;;;;;;10384778;28;20575;-63
2022/02/18 05:49:33;;;;;;;11.73;0.80;;;7.80;99.90;;;;;;10384557;28;20079;-62
2022/02/18 05:54:35;;;;;;;15.30;1.08;;;7.70;99.90;;;;;;10383157;28;20073;-61
2022/02/18 05:59:36;;;;;;;11.50;1.38;;;7.70;99.90;;;;;;10383448;28;20046;-62
2022/02/18 06:04:38;;;;;;;12.68;1.45;;;7.70;99.90;;;;;;10387259;28;20135;-62
2022/02/18 06:09:40;;;;;;;15.90;2.00;;;7.70;99.90;;;;;;10381523;28;20142;-62
2022/02/18 06:14:41;;;;;;;11.30;1.05;;;7.80;99.90;;;;;;10378269;28;20120;-62
2022/02/18 06:19:43;;;;;;;11.90;1.33;;;7.80;99.90;;;;;;10378987;28;20057;-62
2022/02/18 06:24:45;;;;;;;12.38;1.58;;;7.80;99.90;;;;;;10379779;28;20123;-63
2022/02/18 06:29:49;;;;;;;9.15;1.10;;;7.80;99.90;;;;;;10379280;28;20343;-63
2022/02/18 06:34:52;;;;;;;8.63;0.93;;;7.60;99.90;;;;;;10379949;28;20041;-63
2022/02/18 06:39:53;;;;;;;8.98;0.73;;;7.30;99.90;;;;;;10379553;28;20069;-62
2022/02/18 06:44:55;;;;;;;14.40;1.33;;;7.20;99.90;;;;;;10385384;28;20099;-62
2022/02/18 06:49:57;;;;;;;15.23;0.90;;;7.10;99.90;;;;;;10386142;28;20135;-62
2022/02/18 06:54:58;;;;;;;10.25;1.30;;;7.10;99.90;;;;;;10387326;28;20123;-62
2022/02/18 07:00:00;;;;;;;15.80;1.10;;;7.00;99.90;;;;;;10391798;28;20397;-62
2022/02/18 07:05:02;;;;;;;12.30;0.98;;;6.90;99.90;;;;;;10384330;28;20083;-63
2022/02/18 07:10:05;;;;;;;14.82;1.30;;;6.90;99.90;;;;;;10400059;28;20042;-63
2022/02/18 07:15:08;;;;;;;15.15;1.30;;;6.90;99.90;;;;;;10387059;28;20052;-63
2022/02/18 07:20:12;;;;;;;14.65;1.45;;;6.90;99.90;;;;;;10389954;28;20203;-62
2022/02/18 07:25:15;;;;;;;14.18;1.95;;;6.90;99.90;;;;;;10384653;28;20048;-63
2022/02/18 07:30:18;;;;;;;26.02;3.67;;;7.00;99.90;;;;;;10391393;28;20447;-63
2022/02/18 07:35:20;;;;;;;22.35;4.90;;;7.10;99.90;;;;;;10385478;28;20590;-63
2022/02/18 07:40:22;;;;;;;25.50;3.58;;;7.20;99.90;;;;;;10387595;28;20045;-63
2022/02/18 07:45:24;;;;;;;18.73;1.33;;;7.20;99.90;;;;;;10384883;28;20057;-63
2022/02/18 07:50:26;;;;;;;20.75;2.05;;;7.20;99.90;;;;;;10390968;28;20135;-64
2022/02/18 07:55:28;;;;;;;19.23;3.22;;;7.30;99.90;;;;;;10387582;28;20049;-63
2022/02/18 08:00:33;;;;;;;16.95;3.17;;;7.40;99.90;;;;;;10381634;28;20061;-64
2022/02/18 08:05:35;;;;;;;20.45;2.88;;;7.50;99.90;;;;;;10388098;28;20077;-63
2022/02/18 08:10:37;;;;;;;10.48;2.08;;;7.60;99.90;;;;;;10386480;28;20108;-63
2022/02/18 08:15:42;;;;;;;15.27;1.48;;;7.60;99.90;;;;;;10388026;28;20048;-63
2022/02/18 08:20:44;;;;;;;10.65;1.33;;;7.70;99.90;;;;;;10387464;28;20476;-63
2022/02/18 08:25:46;;;;;;;18.35;2.55;;;7.70;99.90;;;;;;10385565;28;20065;-63
2022/02/18 08:30:48;;;;;;;14.55;1.25;;;7.80;99.90;;;;;;10387936;28;20084;-60
2022/02/18 08:35:49;;;;;;;10.85;1.63;;;7.80;99.90;;;;;;10383546;28;20084;-63
2022/02/18 08:40:52;;;;;;;18.20;1.52;;;7.90;99.90;;;;;;10383472;28;20083;-62
2022/02/18 08:45:53;;;;;;;14.73;1.02;;;7.80;99.90;;;;;;10386708;28;20118;-63
2022/02/18 08:50:57;;;;;;;14.48;1.35;;;7.90;99.90;;;;;;10389788;28;20118;-63
2022/02/18 08:55:59;;;;;;;13.73;2.60;;;7.90;99.90;;;;;;10382118;28;20041;-62
2022/02/18 09:01:00;;;;;;;17.67;2.00;;;7.90;99.90;;;;;;10387942;28;20076;-63
2022/02/18 09:06:02;;;;;;;21.23;2.05;;;7.80;99.90;;;;;;10387257;28;20526;-62
2022/02/18 09:11:04;;;;;;;11.27;1.20;;;7.80;99.90;;;;;;10383385;28;20569;-63
2022/02/18 09:16:06;;;;;;;24.38;1.63;;;7.80;99.90;;;;;;10384055;28;20545;-64
2022/02/18 09:21:08;;;;;;;12.13;1.38;;;7.90;99.90;;;;;;10389035;28;20049;-63
2022/02/18 09:26:30;;;;;;;16.00;1.17;;;7.90;99.90;;;;;;10381184;28;22465;-63
2022/02/18 09:31:32;;;;;;;11.20;1.67;;;7.90;99.90;;;;;;10383082;28;20054;-64
2022/02/18 09:36:34;;;;;;;6.00;0.80;;;8.10;99.90;;;;;;10387995;28;20072;-64
2022/02/18 09:41:36;;;;;;;7.65;0.80;;;8.30;99.90;;;;;;10381263;28;20049;-63
2022/02/18 09:46:39;;;;;;;11.45;0.90;;;8.50;99.90;;;;;;10380403;28;20073;-63
2022/02/18 09:51:41;;;;;;;14.95;2.92;;;8.60;99.90;;;;;;10376872;28;20049;-63
2022/02/18 09:56:43;;;;;;;5.85;0.85;;;8.70;99.90;;;;;;10384350;28;20068;-63
2022/02/18 10:01:46;;;;;;;12.20;1.30;;;8.80;99.90;;;;;;10386151;28;20096;-64
2022/02/18 10:06:48;;;;;;;6.20;0.82;;;8.90;99.90;;;;;;10388937;28;20111;-62
2022/02/18 10:11:58;;;;;;;8.77;1.20;;;9.00;99.90;;;;;;10381515;28;20147;-63
2022/02/18 10:17:09;;;;;;;6.63;0.68;;;9.10;99.90;;;;;;10382527;28;20073;-61
2022/02/18 10:22:12;;;;;;;4.85;0.85;;;9.10;99.90;;;;;;10379884;28;20135;-62
2022/02/18 10:27:15;;;;;;;6.45;0.68;;;9.20;99.90;;;;;;10379553;28;20073;-62
2022/02/18 10:32:16;;;;;;;6.80;1.25;;;9.30;99.90;;;;;;10373600;28;20096;-63
2022/02/18 10:37:20;;;;;;;12.85;0.90;;;9.40;99.90;;;;;;10383345;28;20059;-62
2022/02/18 10:42:22;;;;;;;3.65;0.82;;;9.50;99.90;;;;;;10380793;28;20481;-62
2022/02/18 10:47:26;;;;;;;9.10;1.27;;;9.60;99.90;;;;;;10376584;28;20095;-62
2022/02/18 10:52:28;;;;;;;6.78;1.05;;;9.70;99.90;;;;;;10378882;28;20134;-61
2022/02/18 10:57:29;;;;;;;7.70;0.85;;;9.80;99.90;;;;;;10379188;28;20048;-62
2022/02/18 11:02:40;;;;;;;7.63;0.70;;;9.90;99.90;;;;;;10367570;28;20613;-62
2022/02/18 11:07:42;;;;;;;4.35;1.30;;;10.00;99.90;;;;;;10381606;28;20538;-62
2022/02/18 11:12:55;;;;;;;6.05;0.95;;;10.10;99.90;;;;;;10382049;28;20045;-63
2022/02/18 11:17:58;;;;;;;3.67;0.70;;;10.10;99.90;;;;;;10385544;28;20077;-63
2022/02/18 11:23:00;;;;;;;4.45;0.60;;;10.20;99.90;;;;;;10379043;28;20053;-64
2022/02/18 11:28:05;;;;;;;3.80;0.40;;;10.30;99.90;;;;;;10377703;28;20122;-63
2022/02/18 11:33:44;;;;;;;5.03;0.85;;;10.50;99.90;;;;;;10379813;28;20056;-62
2022/02/18 11:38:58;;;;;;;7.93;0.63;;;10.70;99.90;;;;;;10386266;28;20049;-62
2022/02/18 11:44:02;;;;;;;2.88;0.52;;;10.70;99.90;;;;;;10386119;28;20038;-63
2022/02/18 11:49:08;;;;;;;4.38;0.45;;;10.80;99.90;;;;;;10388291;28;20037;-70
2022/02/18 11:54:27;;;;;;;;;;;11.00;99.90;;;;;;10386925;28;20041;-63
2022/02/18 12:00:16;;;;;;;4.50;0.85;;;11.10;99.90;;;;;;10382832;28;19928;-63
2022/02/18 12:05:19;;;;;;;3.92;0.20;;;11.30;99.90;;;;;;10388548;28;20095;-61
2022/02/18 12:10:27;;;;;;;3.17;0.10;;;11.50;99.90;;;;;;10384921;28;20046;-63
2022/02/18 12:15:31;;;;;;;3.50;0.20;;;11.60;99.90;;;;;;10400308;28;20038;-62
2022/02/18 12:20:43;;;;;;;0.88;0.20;;;11.80;99.90;;;;;;10386838;28;20107;-63
2022/02/18 12:25:44;;;;;;;3.97;0.20;;;11.90;99.90;;;;;;10386150;28;20481;-63
2022/02/18 12:30:57;;;;;;;1.98;0.10;;;11.90;99.90;;;;;;10379325;28;20104;-64
2022/02/18 12:35:59;;;;;;;0.10;0.10;;;12.10;99.90;;;;;;10384842;28;20072;-63
2022/02/18 12:41:04;;;;;;;0.10;0.10;;;12.50;99.90;;;;;;10378414;28;21862;-64
2022/02/18 12:46:06;;;;;;;0.08;0.00;;;12.80;99.90;;;;;;10382727;28;20056;-63
2022/02/18 12:51:22;;;;;;;1.65;0.10;;;12.90;99.90;;;;;;10379211;28;22849;-63
2022/02/18 12:56:29;;;;;;;0.30;0.10;;;13.00;99.90;;;;;;10380836;28;20060;-65
2022/02/18 13:01:31;;;;;;;0.35;0.10;;;13.00;99.90;;;;;;10378470;28;20047;-64
2022/02/18 13:06:33;;;;;;;0.75;0.10;;;13.00;99.90;;;;;;10379181;28;20045;-63
2022/02/18 13:11:37;;;;;;;0.00;0.00;;;13.00;99.90;;;;;;10383380;28;20049;-63
2022/02/18 13:16:39;;;;;;;0.55;0.00;;;13.10;99.90;;;;;;10383094;28;20080;-63
2022/02/18 13:21:43;;;;;;;0.10;0.00;;;13.20;99.90;;;;;;10377078;28;20057;-64
2022/02/18 13:26:46;;;;;;;0.10;0.00;;;13.20;98.80;;;;;;10376609;28;20413;-63
2022/02/18 13:31:53;;;;;;;0.25;0.10;;;13.20;98.40;;;;;;10382117;28;20116;-65
2022/02/18 13:36:56;;;;;;;0.75;0.10;;;13.20;95.80;;;;;;10379249;28;20053;-64
2022/02/18 13:41:58;;;;;;;0.30;0.10;;;13.20;95.90;;;;;;10381092;28;20045;-62
2022/02/18 13:47:05;;;;;;;0.10;0.10;;;13.20;96.60;;;;;;10372400;28;20041;-63
2022/02/18 13:52:07;;;;;;;0.35;0.00;;;13.10;97.10;;;;;;10370637;28;20045;-64
2022/02/18 13:57:10;;;;;;;1.65;0.10;;;13.00;98.30;;;;;;10381114;28;20049;-64
2022/02/18 14:02:22;;;;;;;0.15;0.10;;;12.90;99.30;;;;;;10380322;28;20041;-63
2022/02/18 14:07:26;;;;;;;0.00;0.00;;;12.80;99.90;;;;;;10377996;28;20059;-64
2022/02/18 14:12:54;;;;;;;0.10;0.03;;;12.70;99.90;;;;;;10368951;28;20049;-63
2022/02/18 14:18:10;;;;;;;0.55;0.08;;;12.70;99.90;;;;;;10376965;28;20037;-63
2022/02/18 14:23:12;;;;;;;0.10;0.08;;;12.60;99.90;;;;;;10380311;28;20053;-64
2022/02/18 14:28:16;;;;;;;0.20;0.10;;;12.70;99.70;;;;;;10379226;28;20731;-64
2022/02/18 14:33:24;;;;;;;0.20;0.10;;;12.70;99.40;;;;;;10383339;28;20438;-64
2022/02/18 14:38:26;;;;;;;0.95;0.10;;;12.70;99.60;;;;;;10381737;28;20088;-64
2022/02/18 14:43:28;;;;;;;1.20;0.00;;;12.70;97.30;;;;;;10376835;28;20081;-64
2022/02/18 14:48:30;;;;;;;0.25;0.00;;;12.80;96.90;;;;;;10380072;28;20100;-64
2022/02/18 14:53:32;;;;;;;3.50;0.10;;;12.80;96.50;;;;;;10381377;28;20553;-64
2022/02/18 14:58:33;;;;;;;0.25;0.10;;;12.80;96.10;;;;;;10377365;28;20053;-64
2022/02/18 15:03:36;;;;;;;3.85;0.15;;;12.80;95.90;;;;;;10376971;28;20080;-63
2022/02/18 15:08:37;;;;;;;0.20;0.10;;;12.80;96.20;;;;;;10381024;28;20065;-64
2022/02/18 15:13:39;;;;;;;2.67;1.30;;;12.80;95.90;;;;;;10390582;28;20057;-64
2022/02/18 15:18:41;;;;;;;1.10;0.10;;;12.80;95.30;;;;;;10385551;28;20056;-63
2022/02/18 15:23:43;;;;;;;0.73;0.10;;;12.90;95.00;;;;;;10383644;28;20049;-63
2022/02/18 15:28:44;;;;;;;1.23;0.10;;;12.80;96.30;;;;;;10382105;28;20037;-63
2022/02/18 15:44:27;;;;;;;0.30;0.10;;;12.70;99.80;;;;;;10381404;28;20120;-65
2022/02/18 15:49:29;;;;;;;2.15;0.10;;;12.70;99.90;;;;;;10384414;28;20103;-62
2022/02/18 15:54:34;;;;;;;1.75;0.10;;;12.70;98.10;;;;;;10371648;28;20038;-61
2022/02/18 15:59:36;;;;;;;0.50;0.10;;;12.70;97.70;;;;;;10380431;28;20033;-62
2022/02/18 16:04:43;;;;;;;3.33;0.20;;;12.60;99.90;;;;;;10384754;28;20064;-62
2022/02/18 16:09:44;;;;;;;1.10;0.10;;;12.60;99.90;;;;;;10388696;28;20430;-63
2022/02/18 16:14:47;;;;;;;0.20;0.10;;;12.60;97.60;;;;;;10388343;28;20072;-63
2022/02/18 16:19:48;;;;;;;2.22;0.17;;;12.60;97.60;;;;;;10380946;28;20088;-63
2022/02/18 16:24:51;;;;;;;3.00;0.10;;;12.60;99.90;;;;;;10383941;28;20057;-64
2022/02/18 16:29:52;;;;;;;1.27;0.20;;;12.40;99.90;;;;;;10383647;28;20560;-64
2022/02/18 16:34:57;;;;;;;0.35;0.20;;;12.10;99.90;;;;;;10378817;28;20563;-64
2022/02/18 16:39:59;;;;;;;0.15;0.10;;;11.70;99.90;;;;;;10386060;28;20146;-63
2022/02/18 16:45:00;;;;;;;0.00;0.00;;;11.00;99.90;;;;;;10384510;28;20037;-65
2022/02/18 16:50:04;;;;;;;0.00;0.00;;;10.00;99.90;;;;;;10379891;28;20081;-64
2022/02/18 16:55:06;;;;;;;0.00;0.00;;;9.60;99.90;;;;;;10375791;28;20049;-66
2022/02/18 17:00:09;;;;;;;0.00;0.00;;;9.50;99.90;;;;;;10376222;28;20107;-67
2022/02/18 17:05:11;;;;;;;0.00;0.00;;;9.60;98.30;;;;;;10376533;28;20481;-67
2022/02/18 17:10:18;;;;;;;0.00;0.00;;;9.90;88.40;;;;;;10378102;28;21032;-67
2022/02/18 17:15:20;;;;;;;0.00;0.00;;;9.80;89.00;;;;;;10383031;28;20038;-67
2022/02/18 17:20:24;;;;;;;0.00;0.00;;;10.00;82.30;;;;;;10387121;28;20116;-65
2022/02/18 17:25:27;;;;;;;0.00;0.00;;;9.90;79.50;;;;;;10387423;28;20046;-65
2022/02/18 17:30:34;;;;;;;0.00;0.00;;;10.00;78.20;;;;;;10382240;28;20049;-65
2022/02/18 17:35:36;;;;;;;0.00;0.00;;;10.10;74.80;;;;;;10378290;28;20076;-64
2022/02/18 17:40:37;;;;;;;0.00;0.00;;;10.00;75.70;;;;;;10379871;28;20060;-65
2022/02/18 17:45:39;;;;;;;0.00;0.00;;;9.90;75.00;;;;;;10378293;28;20081;-65
2022/02/18 17:50:41;;;;;;;0.00;0.00;;;10.10;73.20;;;;;;10382965;28;20111;-61
2022/02/18 17:55:43;;;;;;;0.00;0.00;;;10.20;72.00;;;;;;10380786;28;20524;-61
2022/02/18 18:00:45;;;;;;;0.00;0.00;;;10.20;71.30;;;;;;10377371;28;20128;-61
2022/02/18 18:05:46;;;;;;;0.00;0.00;;;10.30;69.50;;;;;;10377009;28;20053;-62
2022/02/18 18:10:48;;;;;;;0.77;0.10;;;10.20;69.90;;;;;;10368079;28;20072;-61
2022/02/18 18:15:51;;;;;;;1.02;0.10;;;10.40;68.30;;;;;;10378673;28;20061;-61
2022/02/18 18:20:52;;;;;;;0.15;0.00;;;10.40;67.90;;;;;;10375914;28;20100;-62
2022/02/18 18:25:54;;;;;;;0.65;0.10;;;10.40;67.50;;;;;;10376573;28;20232;-61
2022/02/18 18:30:56;;;;;;;0.10;0.05;;;10.50;66.00;;;;;;10373387;28;20077;-62
2022/02/18 18:35:58;;;;;;;0.60;0.20;;;10.40;67.70;;;;;;10377721;28;20060;-62
2022/02/18 18:41:00;;;;;;;3.58;0.60;;;10.40;67.40;;;;;;10381461;28;20445;-61
2022/02/18 18:46:02;;;;;;;4.47;0.40;;;10.40;65.70;;;;;;10378719;28;20516;-61
2022/02/18 18:51:05;;;;;;;0.50;0.10;;;10.30;68.00;;;;;;10384429;28;20361;-62
2022/02/18 18:56:09;;;;;;;1.80;0.20;;;10.20;67.60;;;;;;10389643;28;20053;-62
2022/02/18 19:01:11;;;;;;;2.25;0.20;;;10.20;67.50;;;;;;10384593;28;20050;-63
2022/02/18 19:06:13;;;;;;;3.80;0.20;;;10.30;64.30;;;;;;10387317;28;20050;-62
2022/02/18 19:11:19;;;;;;;5.25;0.30;;;10.30;63.50;;;;;;10384456;28;20073;-62
2022/02/18 19:16:21;;;;;;;2.30;0.30;;;10.20;64.50;;;;;;10384147;28;20045;-62
2022/02/18 19:21:22;;;;;;;2.08;0.20;;;10.30;62.50;;;;;;10383546;28;20128;-62
2022/02/18 19:26:25;;;;;;;3.28;0.30;;;10.20;63.20;;;;;;10386276;28;20057;-62
2022/02/18 19:31:26;;;;;;;3.70;0.25;;;10.20;63.00;;;;;;10385235;28;20085;-61
2022/02/18 19:36:29;;;;;;;2.72;0.25;;;10.20;62.70;;;;;;10389209;28;20056;-61
2022/02/18 19:41:31;;;;;;;1.17;0.15;;;10.10;64.10;;;;;;10393489;28;20354;-61
2022/02/18 19:46:34;;;;;;;1.85;0.20;;;10.00;63.80;;;;;;10394424;28;20432;-62
2022/02/18 19:51:35;;;;;;;5.68;0.47;;;10.00;63.70;;;;;;10387605;28;20073;-61
2022/02/18 19:56:37;;;;;;;3.40;0.20;;;9.90;62.90;;;;;;10383148;28;20463;-60
2022/02/18 20:01:39;;;;;;;2.15;1.27;;;9.90;60.60;;;;;;10385788;28;20041;-61
2022/02/18 20:06:42;;;;;;;2.92;0.10;;;9.80;62.00;;;;;;10384596;28;20041;-60
2022/02/18 20:11:44;;;;;;;2.17;0.17;;;9.70;63.50;;;;;;10345722;28;20049;-62
2022/02/18 20:16:46;;;;;;;3.80;0.20;;;9.60;63.70;;;;;;10388082;28;20108;-62
2022/02/18 20:21:53;;;;;;;;;;;9.50;65.10;;;;;;10360608;28;20049;-61
2022/02/18 20:26:59;;;;;;;5.85;0.85;;;9.50;65.00;;;;;;10375734;28;19925;-61
2022/02/18 20:32:00;;;;;;;2.75;0.40;;;9.40;64.40;;;;;;10388803;28;20466;-62
2022/02/18 20:37:02;;;;;;;2.83;0.30;;;9.40;62.60;;;;;;10388792;28;20049;-61
2022/02/18 20:42:05;;;;;;;2.60;0.45;;;9.30;62.20;;;;;;10386542;28;20115;-61
2022/02/18 20:47:07;;;;;;;2.80;0.20;;;9.20;61.40;;;;;;10381855;28;20450;-61
2022/02/18 20:52:08;;;;;;;8.63;0.30;;;9.10;61.10;;;;;;10369330;28;20119;-61
2022/02/18 20:57:10;;;;;;;5.40;0.30;;;9.00;60.50;;;;;;10383923;28;20064;-61
2022/02/18 21:02:13;;;;;;;3.80;0.20;;;8.90;60.80;;;;;;10378419;28;20064;-63
2022/02/18 21:07:18;;;;;;;6.60;0.30;;;9.00;62.40;;;;;;10377476;28;20099;-62
2022/02/18 21:12:23;;;;;;;2.40;0.30;;;8.90;59.00;;;;;;10379185;28;20621;-61
2022/02/18 21:17:25;;;;;;;4.35;0.28;;;8.90;58.50;;;;;;10388332;28;20134;-60
2022/02/18 21:22:27;;;;;;;5.07;0.30;;;8.70;59.30;;;;;;10382403;28;20067;-61
2022/02/18 21:27:30;;;;;;;3.72;0.30;;;8.60;59.00;;;;;;10375463;28;20049;-62
2022/02/18 21:32:32;;;;;;;5.72;0.22;;;8.60;58.90;;;;;;10364185;28;20394;-62
2022/02/18 21:37:40;;;;;;;1.80;0.40;;;8.50;58.50;;;;;;10383557;28;20048;-61
2022/02/18 21:42:44;;;;;;;6.03;0.60;;;8.40;58.80;;;;;;10384202;28;20053;-61
2022/02/18 21:47:47;;;;;;;3.22;0.30;;;8.30;59.80;;;;;;10368190;28;20104;-60
2022/02/18 21:52:53;;;;;;;3.33;0.25;;;8.30;58.60;;;;;;10381399;28;20079;-61
2022/02/18 21:58:12;;;;;;;3.15;0.60;;;8.30;59.00;;;;;;10381588;28;20045;-63
2022/02/18 22:03:13;;;;;;;4.60;1.30;;;8.30;58.40;;;;;;10384125;28;20041;-61
2022/02/18 22:08:15;;;;;;;0.88;0.20;;;8.20;59.60;;;;;;10370310;28;20126;-61
2022/02/18 22:13:17;;;;;;;3.30;0.30;;;8.10;60.00;;;;;;10378272;28;20107;-61
2022/02/18 22:18:22;;;;;;;8.45;0.75;;;8.10;59.60;;;;;;10377042;28;20049;-61
2022/02/18 22:23:24;;;;;;;8.45;0.40;;;8.00;59.90;;;;;;10379558;28;20143;-59
2022/02/18 22:28:26;;;;;;;9.35;0.40;;;8.00;60.20;;;;;;10382197;28;20481;-62
2022/02/18 22:33:47;;;;;;;2.45;0.20;;;8.10;60.00;;;;;;10380157;28;20115;-60
2022/02/18 22:38:49;;;;;;;5.10;0.60;;;8.00;60.80;;;;;;10369735;28;20075;-62
2022/02/18 22:43:51;;;;;;;6.35;0.30;;;7.90;60.90;;;;;;10378527;28;20076;-61
2022/02/18 22:48:54;;;;;;;8.48;1.00;;;7.90;61.10;;;;;;10378651;28;20401;-60
2022/02/18 22:53:58;;;;;;;4.65;0.30;;;7.90;61.50;;;;;;10382831;28;20049;-60
2022/02/18 22:59:03;;;;;;;7.65;1.15;;;7.80;61.80;;;;;;10385475;28;20076;-61
2022/02/18 23:04:05;;;;;;;7.40;0.88;;;7.90;62.10;;;;;;10380548;28;20077;-60
2022/02/18 23:09:08;;;;;;;3.78;0.35;;;7.80;62.50;;;;;;10383676;28;20130;-60
2022/02/18 23:14:10;;;;;;;5.38;0.80;;;7.80;62.30;;;;;;10381157;28;20809;-61
2022/02/18 23:19:11;;;;;;;4.63;0.30;;;7.80;61.80;;;;;;10376053;28;20049;-61
2022/02/18 23:24:13;;;;;;;5.18;0.20;;;7.80;62.30;;;;;;10379830;28;20073;-62
2022/02/18 23:29:17;;;;;;;9.85;0.82;;;7.80;62.50;;;;;;10384987;28;20110;-60
2022/02/18 23:34:19;;;;;;;7.10;1.15;;;7.70;62.80;;;;;;10386153;28;20130;-60
2022/02/18 23:39:20;;;;;;;7.53;0.40;;;7.80;62.90;;;;;;10387789;28;20083;-60
2022/02/18 23:44:22;;;;;;;6.53;0.52;;;7.80;63.00;;;;;;10391800;28;20049;-61
2022/02/18 23:49:24;;;;;;;5.97;0.40;;;7.80;63.70;;;;;;10385491;28;20057;-60
2022/02/18 23:54:26;;;;;;;7.60;0.47;;;7.80;63.00;;;;;;10386306;28;20065;-60
2022/02/18 23:59:28;;;;;;;9.98;0.63;;;7.90;62.10;;;;;;10388920;28;20116;-62
